CheckWX is a tool to help pilots better visualize weather data.  It is not intended as a substitute for an official pre-flight weather briefing.

22:19:27 UTC

LFOK TAF
Châlons-Vatry Air Base Airport
Châlons/Vatry, France
TAF LFOK 201700Z 2018/2118 VRB02KT CAVOK PROB30 TEMPO 2103/2106 3000 BR

Mar-20@
18:00 UTC

Mar-20 @ 18:00 UTC

Mar-21@
18:00 UTC

Mar-21 @ 18:00 UTC

TAF LFOK 201700Z 2018/2118 VRB02KT CAVOK
Wind
  • Variable at 2 KTS
Conditions
No significant weather
Cloud Levels
  • No significant clouds

Mar-21@
03:00 UTC

Mar-21 @ 03:00 UTC

Mar-21@
06:00 UTC

Mar-21 @ 06:00 UTC

PROB30 TEMPO 2103/2106 3000 BR

Temporary - 30% Likelihood

Temporary - 30% Likelihood during this time.

Conditions
Mist